Time;durP1;ratioP1;P1;durP2;ratioP2;P2;SDS_P1;SDS_P2;PMS_P1;PMS_P2;Temp;Humidity;BMP_temperature;BMP_pressure;BME280_temperature;BME280_humidity;BME280_pressure;Samples;Min_cycle;Max_cycle;Signal;HPM_P1;HPM_P2
2022/09/19 00:01:54;;;;;;;0.70;0.70;;;10.40;80.80;;;9.96;68.91;94277.50;5049356;28;20729;-82
2022/09/19 00:04:31;;;;;;;0.70;0.70;;;10.40;80.80;;;9.94;69.07;94282.94;5063988;28;20207;-82
2022/09/19 00:07:00;;;;;;;0.60;0.60;;;10.40;81.00;;;9.92;69.60;94284.97;5052506;28;20259;-82
2022/09/19 00:09:32;;;;;;;0.70;0.70;;;10.40;81.00;;;9.95;69.26;94278.50;5020722;28;20212;-81
2022/09/19 00:12:01;;;;;;;0.70;0.70;;;10.30;81.30;;;9.94;69.54;94284.75;5035971;28;20231;-81
2022/09/19 00:14:33;;;;;;;0.70;0.70;;;10.30;81.20;;;9.96;69.49;94281.91;5051897;28;20243;-82
2022/09/19 00:17:07;;;;;;;0.70;0.70;;;10.40;81.50;;;9.96;69.70;94274.88;5053386;28;20759;-81
2022/09/19 00:19:36;;;;;;;0.70;0.70;;;10.40;81.50;;;9.99;69.69;94271.84;5036934;28;20216;-82
2022/09/19 00:22:04;;;;;;;0.80;0.80;;;10.40;81.60;;;9.99;69.71;94271.03;5020657;28;20220;-83
2022/09/19 00:24:46;;;;;;;0.80;0.80;;;10.40;81.60;;;9.99;69.83;94274.47;5033173;28;21567;-82
2022/09/19 00:27:17;;;;;;;0.70;0.70;;;10.40;81.70;;;10.00;69.72;94268.22;5052278;28;20593;-81
2022/09/19 00:29:45;;;;;;;0.70;0.70;;;10.40;81.90;;;10.03;69.89;94273.06;5069014;28;20261;-82
2022/09/19 00:32:13;;;;;;;0.70;0.70;;;10.40;81.80;;;10.04;69.85;94276.47;5019419;28;20289;-82
2022/09/19 00:34:43;;;;;;;0.70;0.70;;;10.40;81.80;;;10.05;69.71;94273.66;5051935;28;20227;-80
2022/09/19 00:37:11;;;;;;;0.70;0.70;;;10.40;81.90;;;10.06;70.00;94253.50;5049647;28;20253;-81
2022/09/19 00:39:39;;;;;;;0.70;0.70;;;10.50;82.00;;;10.07;69.85;94271.63;5052681;28;20668;-82
2022/09/19 00:42:19;;;;;;;0.70;0.70;;;10.40;81.90;;;10.02;69.77;94262.75;5034240;28;20219;-81
2022/09/19 00:44:59;;;;;;;0.70;0.70;;;10.40;81.90;;;10.01;69.98;94266.38;5051387;28;20242;-83
2022/09/19 00:47:46;;;;;;;0.70;0.70;;;10.40;81.90;;;9.99;69.84;94257.94;5036365;28;20282;-83
2022/09/19 00:50:27;;;;;;;0.60;0.60;;;10.40;82.00;;;9.96;69.79;94258.34;5051795;28;20538;-81
2022/09/19 00:53:12;;;;;;;0.60;0.60;;;10.30;81.90;;;9.89;70.05;94258.38;5052916;28;20561;-82
2022/09/19 00:55:40;;;;;;;0.80;0.80;;;10.40;81.80;;;9.80;70.43;94255.13;5038645;28;20713;-82
2022/09/19 00:58:30;;;;;;;0.70;0.70;;;10.30;81.70;;;9.72;70.02;94240.44;5050071;28;20208;-80
2022/09/19 01:00:59;;;;;;;0.70;0.70;;;10.30;81.70;;;9.67;70.51;94244.69;5032020;28;20220;-82
2022/09/19 01:03:29;;;;;;;0.70;0.70;;;10.30;81.70;;;9.59;70.66;94240.44;5031842;28;20204;-82
2022/09/19 01:06:35;;;;;;;0.70;0.70;;;10.20;81.80;;;9.60;70.47;94240.25;5050686;28;20397;-81
2022/09/19 01:09:25;;;;;;;0.65;0.65;;;10.20;82.10;;;9.63;70.46;94244.28;5036138;28;20680;-82
2022/09/19 01:11:59;;;;;;;0.60;0.60;;;10.20;82.30;;;9.65;70.51;94252.72;5027335;28;20251;-80
2022/09/19 01:15:10;;;;;;;0.70;0.70;;;10.10;82.30;;;9.67;70.38;94255.16;5051057;28;20258;-82
2022/09/19 01:17:54;;;;;;;0.70;0.70;;;10.10;82.50;;;9.65;70.42;94246.69;5032270;28;20585;-81
2022/09/19 01:20:36;;;;;;;0.70;0.70;;;10.10;82.50;;;9.71;70.61;94251.91;5051976;28;20219;-82
2022/09/19 01:23:36;;;;;;;0.60;0.60;;;10.10;82.60;;;9.73;70.46;94249.13;5065053;28;20573;-81
2022/09/19 01:26:40;;;;;;;0.60;0.60;;;10.10;82.70;;;9.71;70.48;94272.88;5033975;28;20686;-81
2022/09/19 01:29:30;;;;;;;0.60;0.60;;;10.10;82.80;;;9.71;69.92;94278.09;5035580;28;20506;-82
2022/09/19 01:31:59;;;;;;;0.70;0.70;;;10.10;82.90;;;9.70;70.56;94263.41;5017581;28;20216;-82
2022/09/19 01:34:39;;;;;;;0.80;0.80;;;10.10;82.90;;;9.64;70.07;94271.25;5066894;28;20207;-82
2022/09/19 01:37:13;;;;;;;0.80;0.80;;;10.10;82.50;;;9.53;70.09;94270.88;5019297;28;20223;-81
2022/09/19 01:39:46;;;;;;;0.70;0.70;;;10.10;82.20;;;9.42;70.02;94260.97;5050184;28;20246;-82
2022/09/19 01:42:18;;;;;;;0.70;0.70;;;10.00;82.00;;;9.38;70.13;94276.28;5050079;28;20220;-82
2022/09/19 01:44:45;;;;;;;0.65;0.65;;;9.90;83.30;;;9.35;70.51;94273.25;5034514;28;20227;-83
2022/09/19 01:47:24;;;;;;;0.70;0.70;;;10.00;82.30;;;9.32;70.39;94276.28;5017603;28;20625;-82
2022/09/19 01:50:31;;;;;;;0.60;0.60;;;9.80;83.50;;;9.25;70.27;94279.69;5032065;28;20204;-82
2022/09/19 01:53:34;;;;;;;0.70;0.70;;;9.80;83.40;;;9.21;70.24;94282.91;5034743;28;20266;-82
2022/09/19 01:56:47;;;;;;;0.63;0.63;;;9.70;83.50;;;9.12;70.37;94287.53;5038351;28;20239;-82
2022/09/19 01:59:53;;;;;;;0.70;0.70;;;9.70;83.70;;;9.11;70.38;94291.16;5063879;28;20658;-82
2022/09/19 02:03:06;;;;;;;0.70;0.70;;;9.60;83.80;;;9.10;70.56;94297.38;5031450;28;20638;-81
2022/09/19 02:05:54;;;;;;;0.70;0.70;;;9.50;83.70;;;9.07;70.58;94301.19;5048046;28;20211;-82
2022/09/19 02:08:37;;;;;;;0.70;0.70;;;9.50;83.70;;;9.07;70.42;94305.59;5042015;28;20223;-81
2022/09/19 02:11:18;;;;;;;0.70;0.70;;;9.50;83.80;;;9.03;70.35;94305.19;5049795;28;20196;-81
2022/09/19 02:13:55;;;;;;;0.50;0.50;;;9.50;83.70;;;9.03;70.30;94312.25;5016695;28;20196;-82
2022/09/19 02:16:36;;;;;;;0.70;0.70;;;9.50;83.70;;;8.96;70.42;94313.03;5018260;28;20215;-82
2022/09/19 02:19:18;;;;;;;0.70;0.70;;;9.40;83.60;;;8.93;70.15;94313.41;5031418;28;20199;-83
2022/09/19 02:21:54;;;;;;;0.80;0.80;;;9.40;83.60;;;8.91;70.21;94317.22;5050078;28;20236;-81
2022/09/19 02:24:27;;;;;;;0.70;0.70;;;9.40;83.70;;;8.80;70.27;94308.97;5018148;28;20202;-81
2022/09/19 02:27:07;;;;;;;0.80;0.80;;;9.40;83.60;;;8.81;70.75;94312.38;5033549;28;20215;-82
2022/09/19 02:29:46;;;;;;;0.70;0.70;;;9.30;83.80;;;8.74;70.62;94317.59;5051271;28;20719;-82
2022/09/19 02:32:17;;;;;;;0.60;0.60;;;9.20;83.80;;;8.80;70.54;94318.59;5048235;28;20224;-81
2022/09/19 02:34:51;;;;;;;0.70;0.70;;;9.20;83.90;;;8.79;70.53;94315.19;5017422;28;20196;-83
2022/09/19 02:37:47;;;;;;;0.70;0.70;;;9.20;84.00;;;8.75;70.46;94313.97;5017190;28;20704;-81
2022/09/19 02:40:40;;;;;;;0.68;0.68;;;9.20;83.90;;;8.73;70.45;94299.47;5018730;28;20306;-82
2022/09/19 02:43:37;;;;;;;0.70;0.70;;;9.20;83.80;;;8.73;70.22;94302.88;5036669;28;20219;-83
2022/09/19 02:46:31;;;;;;;0.70;0.70;;;9.10;83.80;;;8.68;70.21;94307.91;5061367;28;20223;-82
2022/09/19 02:49:14;;;;;;;0.60;0.60;;;9.10;83.70;;;8.65;70.11;94297.81;5043392;28;20188;-83
2022/09/19 02:51:55;;;;;;;0.60;0.60;;;9.10;83.60;;;8.60;69.99;94301.00;5059238;28;20218;-83
2022/09/19 02:54:28;;;;;;;0.70;0.70;;;9.10;83.40;;;8.52;69.84;94301.19;5038201;28;20270;-82
2022/09/19 02:57:03;;;;;;;0.70;0.70;;;9.10;83.30;;;8.49;69.31;94307.63;5042199;28;20220;-83
2022/09/19 02:59:37;;;;;;;0.70;0.70;;;8.90;83.00;;;8.42;69.56;94305.94;5023027;28;20196;-83
2022/09/19 03:02:16;;;;;;;0.70;0.70;;;8.80;82.80;;;8.29;69.45;94297.03;5040060;28;20224;-81
2022/09/19 03:04:53;;;;;;;0.60;0.60;;;8.80;82.80;;;8.25;69.63;94308.88;5056644;28;20286;-82
2022/09/19 03:07:32;;;;;;;0.70;0.70;;;8.80;82.80;;;8.16;69.57;94310.00;5028620;28;20207;-82
2022/09/19 03:10:20;;;;;;;0.70;0.70;;;8.70;82.80;;;8.12;70.10;94319.22;5030308;28;20265;-82
2022/09/19 03:13:08;;;;;;;0.80;0.80;;;8.60;83.00;;;8.05;69.71;94321.00;5030509;28;20251;-82
2022/09/19 03:15:51;;;;;;;0.70;0.70;;;8.50;83.00;;;8.01;70.06;94320.56;5029545;28;20204;-81
2022/09/19 03:18:28;;;;;;;0.70;0.70;;;8.50;83.00;;;7.97;70.29;94329.75;5048424;28;20191;-82
2022/09/19 03:21:02;;;;;;;0.80;0.80;;;8.40;83.10;;;7.93;70.25;94323.31;5029916;28;20223;-83
2022/09/19 03:23:44;;;;;;;0.70;0.70;;;8.40;83.20;;;7.92;70.35;94324.31;5042699;28;20207;-82
2022/09/19 03:26:21;;;;;;;0.70;0.70;;;8.30;83.40;;;7.87;70.73;94330.09;5045717;28;20287;-81
2022/09/19 03:28:53;;;;;;;0.70;0.70;;;8.30;83.80;;;7.88;70.90;94336.13;5030391;28;20210;-82
2022/09/19 03:31:22;;;;;;;0.80;0.80;;;8.40;84.20;;;7.92;70.59;94332.13;5043426;28;20298;-81
2022/09/19 03:33:51;;;;;;;0.60;0.60;;;8.40;84.40;;;7.96;70.76;94330.78;5046984;28;20196;-80
2022/09/19 03:36:18;;;;;;;0.70;0.70;;;8.30;84.30;;;7.90;70.70;94328.91;5045774;28;20219;-82
2022/09/19 03:38:46;;;;;;;0.70;0.70;;;8.30;84.20;;;7.96;70.70;94330.78;5047169;28;20643;-82
2022/09/19 03:41:21;;;;;;;0.70;0.70;;;8.40;84.30;;;7.92;70.92;94325.13;5026378;28;20323;-83
2022/09/19 03:43:49;;;;;;;0.80;0.80;;;8.30;84.30;;;7.92;70.64;94330.34;5034309;28;20193;-83
2022/09/19 03:46:22;;;;;;;0.70;0.70;;;8.30;84.20;;;7.98;70.66;94334.81;5052302;28;20227;-82
2022/09/19 03:48:52;;;;;;;0.70;0.70;;;8.30;84.10;;;7.94;70.43;94327.53;5035839;28;20622;-81
2022/09/19 03:51:19;;;;;;;0.60;0.60;;;8.30;83.90;;;7.95;70.37;94332.56;5031924;28;20220;-82
2022/09/19 03:53:46;;;;;;;0.90;0.90;;;8.40;84.00;;;7.94;70.29;94345.81;5031374;28;20228;-82
2022/09/19 03:56:16;;;;;;;0.70;0.70;;;8.30;83.90;;;7.91;70.41;94340.97;5052510;28;20215;-82
2022/09/19 03:58:44;;;;;;;0.90;0.90;;;8.30;84.00;;;7.86;70.26;94338.94;5049481;28;20221;-85
2022/09/19 04:01:14;;;;;;;0.70;0.70;;;8.20;83.90;;;7.82;70.01;94341.13;5050588;28;20290;-84
2022/09/19 04:03:49;;;;;;;0.70;0.70;;;8.20;83.90;;;7.81;70.10;94336.06;5036088;28;20211;-83
2022/09/19 04:06:17;;;;;;;0.70;0.70;;;8.20;84.00;;;7.88;70.53;94347.38;5020988;28;20216;-83
2022/09/19 04:08:45;;;;;;;0.70;0.70;;;8.20;84.00;;;7.89;70.41;94348.19;5053353;28;20212;-83
2022/09/19 04:11:13;;;;;;;0.70;0.70;;;8.20;84.00;;;7.85;70.58;94345.16;5035457;28;20200;-83
2022/09/19 04:13:41;;;;;;;0.80;0.80;;;8.20;84.20;;;7.90;70.81;94370.69;5017766;28;20224;-84
2022/09/19 04:16:17;;;;;;;0.80;0.80;;;8.20;84.40;;;7.92;70.83;94363.47;5035681;28;20207;-83
2022/09/19 04:18:49;;;;;;;0.80;0.80;;;8.20;84.70;;;7.95;70.79;94368.34;5019871;28;20200;-84
2022/09/19 04:21:38;;;;;;;0.70;0.70;;;8.20;85.00;;;8.00;70.81;94371.97;5038957;28;20238;-84
2022/09/19 04:24:13;;;;;;;0.70;0.70;;;8.20;85.40;;;8.06;71.42;94369.63;5053755;28;20206;-84
2022/09/19 04:27:06;;;;;;;0.70;0.70;;;8.30;85.60;;;8.11;71.32;94377.69;5052705;28;20708;-84
2022/09/19 04:29:35;;;;;;;0.60;0.60;;;8.30;85.80;;;8.20;71.49;94378.34;5054638;28;20206;-84
2022/09/19 04:32:03;;;;;;;0.70;0.70;;;8.40;86.10;;;8.27;71.53;94389.66;5022687;28;20220;-83
2022/09/19 04:34:30;;;;;;;0.70;0.70;;;8.40;86.00;;;8.33;71.20;94391.50;5033446;28;20208;-83
2022/09/19 04:37:02;;;;;;;0.60;0.60;;;8.50;86.10;;;8.36;71.18;94391.16;5033271;28;20267;-82
2022/09/19 04:39:32;;;;;;;0.60;0.60;;;8.70;86.10;;;8.37;71.23;94389.31;5036502;28;20208;-83
2022/09/19 04:42:01;;;;;;;0.60;0.60;;;8.60;85.90;;;8.44;71.11;94398.03;5020386;28;20255;-83
2022/09/19 04:44:29;;;;;;;0.60;0.60;;;8.70;86.00;;;8.47;71.21;94398.47;5037141;28;20306;-84
2022/09/19 04:47:15;;;;;;;0.70;0.70;;;8.80;86.00;;;8.49;71.10;94403.50;5051318;28;20816;-83
2022/09/19 04:49:42;;;;;;;0.70;0.70;;;8.70;85.90;;;8.49;70.89;94403.50;5034394;28;20222;-83
2022/09/19 04:52:13;;;;;;;0.60;0.60;;;8.80;85.90;;;8.56;71.08;94403.56;5048840;28;20247;-82
2022/09/19 04:54:45;;;;;;;0.70;0.70;;;8.90;86.00;;;8.59;71.16;94411.84;5032849;28;20208;-84
2022/09/19 04:57:13;;;;;;;0.60;0.60;;;8.90;86.00;;;8.59;71.12;94411.84;5016702;28;20216;-84
2022/09/19 04:59:41;;;;;;;0.70;0.70;;;8.90;85.90;;;8.63;71.01;94405.22;5036306;28;20193;-83
2022/09/19 05:02:11;;;;;;;0.70;0.70;;;8.90;85.90;;;8.63;71.08;94399.19;5020469;28;20382;-82
2022/09/19 05:04:41;;;;;;;0.70;0.70;;;8.90;85.80;;;8.66;71.20;94414.47;5036704;28;20202;-83
2022/09/19 05:07:13;;;;;;;0.70;0.70;;;8.90;85.80;;;8.68;70.97;94415.09;5034024;28;20227;-83
2022/09/19 05:09:44;;;;;;;0.63;0.63;;;9.10;85.90;;;8.71;71.16;94409.47;5030184;28;20218;-83
2022/09/19 05:12:12;;;;;;;0.68;0.68;;;9.00;85.90;;;8.72;71.05;94413.69;5033337;28;20235;-84
2022/09/19 05:14:46;;;;;;;0.70;0.70;;;9.00;85.80;;;8.65;71.58;94400.59;5033836;28;20208;-84
2022/09/19 05:17:14;;;;;;;0.70;0.70;;;9.00;86.00;;;8.71;71.18;94406.84;5022150;28;20266;-83
2022/09/19 05:19:44;;;;;;;0.70;0.70;;;9.00;86.00;;;8.79;71.32;94425.00;5067048;28;20199;-83
2022/09/19 05:22:14;;;;;;;0.70;0.70;;;9.00;86.10;;;8.79;71.08;94425.00;5032750;28;20244;-83
2022/09/19 05:24:41;;;;;;;0.65;0.65;;;9.10;86.00;;;8.76;71.03;94417.56;5019635;28;20227;-84
2022/09/19 05:27:08;;;;;;;0.60;0.60;;;9.10;86.00;;;8.81;71.05;94423.00;5019872;28;20261;-83
2022/09/19 05:29:39;;;;;;;0.70;0.70;;;9.10;86.00;;;8.85;71.01;94428.66;5034587;28;20207;-84
2022/09/19 05:32:06;;;;;;;0.60;0.60;;;9.10;86.00;;;8.88;71.03;94441.34;5020199;28;20212;-82
2022/09/19 05:34:45;;;;;;;0.70;0.70;;;9.20;86.10;;;8.86;71.13;94435.53;5022081;28;20196;-84
2022/09/19 05:37:31;;;;;;;0.60;0.60;;;9.20;86.00;;;8.91;70.96;94446.19;5038763;28;20253;-82
2022/09/19 05:40:20;;;;;;;0.60;0.60;;;9.20;86.10;;;8.91;71.06;94443.59;5031726;28;20712;-82
2022/09/19 05:43:07;;;;;;;0.70;0.70;;;9.30;86.10;;;8.92;70.89;94434.75;5049576;28;20219;-82
2022/09/19 05:45:37;;;;;;;0.80;0.80;;;9.30;86.00;;;8.94;70.91;94445.00;5051264;28;20212;-82
2022/09/19 05:48:06;;;;;;;0.68;0.68;;;9.30;85.90;;;8.97;71.25;94442.00;5020215;28;20220;-82
2022/09/19 05:50:36;;;;;;;0.70;0.70;;;9.30;86.10;;;9.00;71.15;94444.22;5033775;28;20254;-82
2022/09/19 05:55:51;;;;;;;0.60;0.60;;;9.30;86.30;;;9.07;71.26;94445.06;5044843;28;20199;-83
2022/09/19 05:58:35;;;;;;;0.68;0.68;;;9.40;86.40;;;9.07;71.51;94437.22;5022260;28;20269;-83
2022/09/19 06:01:08;;;;;;;0.70;0.70;;;9.40;86.50;;;9.12;71.18;94439.28;5037602;28;20274;-83
2022/09/19 06:03:38;;;;;;;0.70;0.70;;;9.40;86.40;;;9.17;71.29;94447.34;5019054;28;20647;-84
2022/09/19 06:06:11;;;;;;;0.70;0.70;;;9.50;86.50;;;9.21;71.14;94450.38;5019663;28;20203;-83
2022/09/19 06:08:42;;;;;;;0.60;0.60;;;9.40;86.40;;;9.15;70.92;94444.09;5035750;28;20200;-84
2022/09/19 06:11:14;;;;;;;0.60;0.60;;;9.40;86.40;;;9.20;71.00;94467.06;5031676;28;20670;-83
2022/09/19 06:16:28;;;;;;;0.70;0.70;;;9.40;85.90;;;9.06;70.54;94458.34;5036798;28;20234;-84
2022/09/19 06:19:14;;;;;;;0.70;0.70;;;9.40;85.70;;;9.02;70.50;94481.47;5037052;28;20242;-83
2022/09/19 06:21:43;;;;;;;0.70;0.70;;;9.40;85.60;;;8.96;70.72;94483.03;5047368;28;20235;-83
2022/09/19 06:24:12;;;;;;;0.60;0.60;;;9.50;85.60;;;8.86;70.99;94495.66;5012578;28;20269;-83
2022/09/19 06:26:39;;;;;;;0.60;0.60;;;9.40;85.30;;;8.77;71.19;94512.50;5050147;28;20224;-84
2022/09/19 06:29:09;;;;;;;0.80;0.80;;;9.40;85.30;;;8.71;71.16;94495.75;5018411;28;20219;-84
2022/09/19 06:31:40;;;;;;;0.70;0.70;;;9.30;85.30;;;8.63;71.29;94493.28;5018153;28;20234;-84
2022/09/19 06:34:16;;;;;;;0.70;0.70;;;9.30;85.30;;;8.55;71.30;94489.00;5036487;28;20207;-83
2022/09/19 06:36:44;;;;;;;0.70;0.70;;;9.30;85.30;;;8.45;71.35;94486.69;5017085;28;20689;-83
2022/09/19 06:39:11;;;;;;;0.60;0.60;;;9.20;85.20;;;8.40;71.57;94504.75;5016733;28;20637;-82
2022/09/19 06:41:51;;;;;;;0.70;0.70;;;9.10;85.30;;;8.34;71.90;94502.88;5035403;28;20247;-83
2022/09/19 06:44:47;;;;;;;0.60;0.60;;;9.10;85.50;;;8.28;71.89;94501.03;5047480;28;20207;-82
2022/09/19 06:47:49;;;;;;;0.60;0.60;;;9.00;85.90;;;8.31;72.46;94503.25;5055204;28;20247;-82
2022/09/19 06:50:35;;;;;;;0.60;0.60;;;9.00;86.00;;;8.32;72.55;94523.97;5069515;28;20217;-83
2022/09/19 06:53:08;;;;;;;0.70;0.70;;;9.00;86.10;;;8.37;72.72;94515.56;5052536;28;20341;-83
2022/09/19 06:55:35;;;;;;;0.68;0.68;;;8.90;86.50;;;8.39;72.73;94518.00;5022484;28;20212;-83
2022/09/19 06:58:11;;;;;;;0.70;0.70;;;8.90;86.40;;;8.38;72.70;94517.19;5050907;28;20227;-83
2022/09/19 07:00:40;;;;;;;0.70;0.70;;;8.90;86.40;;;8.42;72.65;94520.22;5021808;28;20200;-83
2022/09/19 07:03:14;;;;;;;0.60;0.60;;;9.00;86.70;;;8.44;72.72;94533.91;5021945;28;20262;-82
2022/09/19 07:05:47;;;;;;;0.70;0.70;;;9.00;86.50;;;8.39;72.77;94529.25;5020227;28;20238;-84
2022/09/19 07:08:22;;;;;;;0.70;0.70;;;9.00;86.40;;;8.39;72.59;94536.28;5037438;28;20551;-83
2022/09/19 07:10:50;;;;;;;0.70;0.70;;;9.00;86.50;;;8.34;72.83;94519.34;5037704;28;20216;-83
2022/09/19 07:13:19;;;;;;;0.60;0.60;;;9.10;86.70;;;8.30;73.05;94522.53;5053976;28;20219;-83
2022/09/19 07:15:53;;;;;;;0.70;0.70;;;9.00;86.90;;;8.34;72.92;94537.66;5054758;28;20219;-84
2022/09/19 07:18:20;;;;;;;0.80;0.80;;;8.90;87.10;;;8.39;72.96;94523.22;5021080;28;20327;-84
2022/09/19 07:20:50;;;;;;;0.70;0.70;;;8.90;87.50;;;8.44;73.22;94528.69;5021269;28;20263;-83
2022/09/19 07:23:19;;;;;;;0.60;0.60;;;9.00;87.70;;;8.52;73.47;94523.38;5038185;28;20226;-83
2022/09/19 07:26:04;;;;;;;0.63;0.63;;;9.00;88.00;;;8.60;73.37;94536.28;5056252;28;20298;-83
2022/09/19 07:28:34;;;;;;;0.70;0.70;;;9.00;88.10;;;8.65;73.49;94531.31;5054855;28;20677;-83
2022/09/19 07:31:02;;;;;;;0.70;0.70;;;9.10;88.20;;;8.70;73.31;94537.78;5036617;28;20685;-82
2022/09/19 07:33:33;;;;;;;0.57;0.57;;;9.10;88.10;;;8.74;73.46;94539.00;5019485;28;20214;-81
2022/09/19 07:36:01;;;;;;;0.60;0.60;;;9.20;88.30;;;8.77;73.10;94542.06;5036287;28;20655;-81
2022/09/19 07:38:34;;;;;;;0.70;0.70;;;9.20;88.30;;;8.84;73.71;94549.97;5022394;28;20338;-82
2022/09/19 07:41:33;;;;;;;0.70;0.70;;;9.20;88.50;;;8.88;73.66;94547.78;5018938;28;20239;-81
2022/09/19 07:44:36;;;;;;;0.70;0.70;;;9.30;88.50;;;8.94;73.73;94562.72;5026482;28;20200;-81
2022/09/19 07:47:27;;;;;;;0.70;0.70;;;9.40;88.70;;;8.97;73.61;94555.28;5039330;28;20247;-81
2022/09/19 07:50:23;;;;;;;0.60;0.60;;;9.60;88.90;;;9.08;74.13;94558.38;5050524;28;20212;-81
2022/09/19 07:53:12;;;;;;;0.80;0.80;;;9.50;89.30;;;9.15;73.95;94567.06;5033155;28;20694;-82
2022/09/19 07:55:41;;;;;;;0.70;0.70;;;9.60;88.90;;;9.20;73.92;94575.16;5029288;28;20196;-81
2022/09/19 07:58:11;;;;;;;0.70;0.70;;;9.70;88.80;;;9.25;74.00;94567.56;5035443;28;20696;-83
2022/09/19 08:00:51;;;;;;;0.70;0.70;;;9.70;89.00;;;9.28;74.13;94564.53;5023268;28;20563;-83
2022/09/19 08:03:37;;;;;;;0.70;0.70;;;9.80;89.20;;;9.34;74.27;94567.38;5068246;28;20597;-88
2022/09/19 08:06:05;;;;;;;0.60;0.60;;;9.80;89.30;;;9.37;74.20;94569.63;5024679;28;20189;-83
2022/09/19 08:08:35;;;;;;;0.70;0.70;;;9.90;89.50;;;9.46;74.09;94568.47;5013700;28;20208;-84
2022/09/19 08:11:11;;;;;;;0.70;0.70;;;10.00;88.00;;;9.53;73.96;94571.94;5037736;28;20220;-83
2022/09/19 08:13:38;;;;;;;0.77;0.77;;;10.00;88.10;;;9.60;73.73;94579.81;5017985;28;20211;-83
2022/09/19 08:16:06;;;;;;;0.70;0.70;;;10.10;87.90;;;9.63;73.41;94591.72;5036440;28;20285;-82
2022/09/19 08:18:33;;;;;;;0.63;0.63;;;10.10;87.50;;;9.56;73.59;94576.78;5020347;28;20232;-83
2022/09/19 08:21:01;;;;;;;0.70;0.70;;;10.20;87.60;;;9.69;73.67;94589.13;5035599;28;20655;-83
2022/09/19 08:23:29;;;;;;;0.70;0.70;;;10.20;87.70;;;9.69;73.42;94589.13;5020967;28;20215;-84
2022/09/19 08:26:02;;;;;;;0.70;0.70;;;10.20;87.50;;;9.76;73.86;94586.53;5037266;28;20207;-83
2022/09/19 08:28:30;;;;;;;0.80;0.80;;;10.20;88.00;;;9.77;73.89;94591.56;5053643;28;20191;-84
2022/09/19 08:31:00;;;;;;;0.60;0.60;;;10.30;87.80;;;9.83;73.80;94600.47;5034790;28;20202;-83
2022/09/19 08:33:31;;;;;;;0.70;0.70;;;10.30;87.60;;;9.86;73.72;94594.84;5037370;28;20244;-83
2022/09/19 08:35:59;;;;;;;0.60;0.60;;;10.40;87.90;;;9.89;73.23;94594.47;5036348;28;20204;-83
2022/09/19 08:38:31;;;;;;;0.70;0.70;;;10.40;87.80;;;9.96;73.59;94604.97;5020950;28;20665;-83
2022/09/19 08:41:25;;;;;;;0.70;0.70;;;10.40;87.90;;;9.97;73.14;94601.31;5020142;28;20239;-83
2022/09/19 08:44:23;;;;;;;0.80;0.80;;;10.40;87.60;;;9.96;73.30;94601.53;5065834;28;20204;-83
2022/09/19 08:47:09;;;;;;;0.70;0.70;;;10.50;87.30;;;9.97;73.45;94632.75;5036143;28;20637;-82
2022/09/19 08:50:03;;;;;;;0.70;0.70;;;10.50;87.60;;;10.00;73.46;94608.00;5019259;28;20207;-83
2022/09/19 08:52:44;;;;;;;0.60;0.60;;;10.50;87.80;;;10.06;74.12;94617.72;5035851;28;20222;-82
2022/09/19 08:55:20;;;;;;;0.68;0.68;;;10.60;88.30;;;10.14;74.35;94624.59;5052567;28;20210;-82
2022/09/19 08:57:55;;;;;;;0.70;0.70;;;10.60;88.40;;;10.14;73.91;94622.75;5053245;28;20219;-82
2022/09/19 09:00:30;;;;;;;0.70;0.70;;;10.70;88.20;;;10.19;74.17;94620.38;5052800;28;20234;-83
2022/09/19 09:03:07;;;;;;;0.60;0.60;;;10.70;88.00;;;10.31;74.10;94632.91;5052070;28;20293;-83
2022/09/19 09:06:04;;;;;;;0.70;0.70;;;10.90;88.40;;;10.33;73.74;94655.31;5037100;28;20727;-83
2022/09/19 09:08:53;;;;;;;0.60;0.60;;;10.80;88.30;;;10.34;73.64;94637.75;5036657;28;20192;-84
2022/09/19 09:11:57;;;;;;;0.68;0.68;;;10.90;88.00;;;10.38;73.67;94633.78;5067304;28;20255;-83
2022/09/19 09:14:46;;;;;;;0.50;0.50;;;10.90;87.90;;;10.40;73.57;94637.00;5049513;28;20203;-84
2022/09/19 09:17:48;;;;;;;0.70;0.70;;;11.00;87.90;;;10.50;74.02;94639.25;5052267;28;20314;-83
2022/09/19 09:20:53;;;;;;;0.60;0.60;;;11.10;88.40;;;10.57;74.17;94637.47;5060473;28;20228;-84
2022/09/19 09:23:35;;;;;;;0.70;0.70;;;11.00;88.40;;;10.57;74.19;94637.47;5059789;28;20222;-83
2022/09/19 09:26:40;;;;;;;0.70;0.70;;;11.10;88.70;;;10.62;73.87;94639.47;5028040;28;20334;-84
2022/09/19 09:29:27;;;;;;;0.63;0.63;;;11.20;88.50;;;10.80;74.09;94652.03;5033400;28;20230;-83
2022/09/19 09:32:26;;;;;;;0.70;0.70;;;11.20;88.70;;;10.87;74.27;94653.63;5033667;28;20693;-83
2022/09/19 09:35:14;;;;;;;0.70;0.70;;;11.30;89.10;;;11.00;74.43;94665.97;5031362;28;20202;-81
2022/09/19 09:37:47;;;;;;;0.70;0.70;;;11.40;89.20;;;11.07;74.08;94665.19;5028351;28;20259;-84
2022/09/19 09:43:14;;;;;;;0.65;0.65;;;11.60;89.50;;;11.34;74.29;94669.44;5035908;28;20258;-83
2022/09/19 09:45:51;;;;;;;0.70;0.70;;;11.70;89.70;;;11.46;74.24;94676.69;5017784;28;20203;-83
2022/09/19 09:48:35;;;;;;;0.60;0.60;;;11.80;89.40;;;11.48;73.71;94670.22;5034310;28;20218;-83
2022/09/19 09:51:15;;;;;;;0.70;0.70;;;11.90;89.00;;;11.57;73.89;94675.28;5034037;28;20195;-83
2022/09/19 09:57:39;;;;;;;0.70;0.70;;;12.00;88.30;;;11.51;73.06;94677.72;5052185;28;20223;-83
2022/09/19 10:03:44;;;;;;;0.68;0.68;;;12.00;88.20;;;11.61;73.19;94687.81;5054356;28;20227;-82
2022/09/19 10:06:40;;;;;;;0.68;0.68;;;12.10;88.50;;;11.71;73.95;94674.25;5051780;28;20226;-83
2022/09/19 10:09:13;;;;;;;0.65;0.65;;;12.30;89.60;;;11.93;74.02;94689.78;5051108;28;20207;-83
2022/09/19 10:12:14;;;;;;;0.63;0.63;;;12.30;89.90;;;12.09;73.40;94691.97;5065547;28;20318;-83
2022/09/19 10:15:12;;;;;;;0.70;0.70;;;12.50;90.00;;;12.26;73.71;94681.03;5024462;28;20195;-82
2022/09/19 10:18:05;;;;;;;0.60;0.60;;;12.60;90.00;;;12.37;73.57;94672.47;5018521;28;20219;-83
2022/09/19 10:20:49;;;;;;;0.70;0.70;;;12.80;90.00;;;12.55;71.93;94687.56;5049408;28;20197;-83
2022/09/19 10:23:29;;;;;;;0.60;0.60;;;13.00;88.80;;;12.63;70.89;94676.81;5047737;28;21242;-82
2022/09/19 10:26:15;;;;;;;0.60;0.60;;;13.10;88.50;;;12.69;72.11;94675.16;5043735;28;20605;-82
2022/09/19 10:28:53;;;;;;;0.60;0.60;;;13.20;89.00;;;12.90;72.55;94681.13;5050698;28;20661;-83
2022/09/19 10:31:40;;;;;;;0.60;0.60;;;13.30;89.40;;;13.03;72.56;94682.88;5051015;28;20224;-83
2022/09/19 10:34:33;;;;;;;0.70;0.70;;;13.40;89.30;;;13.12;70.34;94692.94;5050663;28;20191;-82
2022/09/19 10:37:28;;;;;;;0.70;0.70;;;13.50;87.60;;;13.20;71.10;94694.50;5022264;28;20759;-83
2022/09/19 10:40:01;;;;;;;0.70;0.70;;;13.60;88.20;;;13.15;69.13;94698.81;5050887;28;20207;-82
2022/09/19 10:42:41;;;;;;;0.65;0.65;;;13.60;86.60;;;13.10;68.56;94702.06;5050605;28;20288;-82
2022/09/19 10:45:30;;;;;;;0.60;0.60;;;13.60;85.60;;;12.98;66.96;94707.19;5036572;28;20663;-82
2022/09/19 10:48:23;;;;;;;0.70;0.70;;;13.60;85.00;;;12.86;67.66;94753.63;5033101;28;20211;-82
2022/09/19 10:50:50;;;;;;;0.70;0.70;;;13.50;84.40;;;12.71;66.87;94715.22;5017037;28;20195;-81
2022/09/19 10:53:28;;;;;;;0.60;0.60;;;13.40;84.00;;;12.64;67.91;94714.44;5028403;28;20670;-82
2022/09/19 10:56:04;;;;;;;0.70;0.70;;;13.30;85.40;;;12.57;66.64;94724.19;5015551;28;20238;-81
2022/09/19 10:58:39;;;;;;;0.63;0.63;;;13.20;83.70;;;12.52;66.62;94731.91;5017997;28;20203;-82
2022/09/19 11:01:26;;;;;;;0.65;0.65;;;13.20;83.60;;;12.47;67.53;94728.09;5048679;28;20290;-82
2022/09/19 11:04:21;;;;;;;0.60;0.60;;;13.10;83.90;;;12.46;67.98;94723.84;5034402;28;20231;-83
2022/09/19 11:07:16;;;;;;;0.60;0.60;;;13.10;84.20;;;12.44;68.33;94717.97;5017387;28;20230;-82
2022/09/19 11:09:47;;;;;;;0.70;0.70;;;13.00;84.80;;;12.51;69.44;94723.19;5017622;28;20692;-82
2022/09/19 11:12:17;;;;;;;0.60;0.60;;;13.00;85.70;;;12.55;69.10;94713.06;5018613;28;20251;-83
2022/09/19 11:14:48;;;;;;;0.60;0.60;;;13.00;85.70;;;12.65;69.39;94719.50;5033939;28;20667;-84
2022/09/19 11:17:42;;;;;;;0.68;0.68;;;13.10;86.20;;;12.90;71.09;94713.53;5051063;28;20235;-83
2022/09/19 11:20:29;;;;;;;0.70;0.70;;;13.20;88.00;;;13.13;70.83;94702.44;5058763;28;21481;-83
2022/09/19 11:23:13;;;;;;;0.70;0.70;;;13.40;87.90;;;13.31;68.78;94713.28;5044434;28;20701;-80
2022/09/19 11:26:04;;;;;;;0.80;0.80;;;13.60;87.10;;;13.41;68.40;94724.94;5066168;28;20199;-81
2022/09/19 11:28:38;;;;;;;0.80;0.80;;;13.70;86.00;;;13.50;68.39;94719.44;5048358;28;20207;-81
2022/09/19 11:31:49;;;;;;;0.73;0.73;;;13.90;85.90;;;13.61;68.73;94724.81;5050844;28;20277;-81